Time;durP1;ratioP1;P1;durP2;ratioP2;P2;SDS_P1;SDS_P2;PMS_P1;PMS_P2;Temp;Humidity;BMP_temperature;BMP_pressure;BME280_temperature;BME280_humidity;BME280_pressure;Samples;Min_cycle;Max_cycle;Signal;HPM_P1;HPM_P2
2024/01/16 00:01:30;;;;;;;11.60;5.87;;;2.30;99.90;;;;;;5093129;28;20168;-72
2024/01/16 00:03:56;;;;;;;8.67;5.40;;;2.30;99.90;;;;;;5093093;28;20192;-73
2024/01/16 00:06:21;;;;;;;8.30;5.10;;;2.30;99.90;;;;;;5092925;28;20169;-74
2024/01/16 00:08:47;;;;;;;7.27;5.37;;;2.30;99.90;;;;;;5092962;28;20180;-72
2024/01/16 00:11:12;;;;;;;10.80;6.03;;;2.40;99.90;;;;;;5092870;28;20174;-73
2024/01/16 00:13:38;;;;;;;10.47;6.40;;;2.40;99.90;;;;;;5074653;28;20192;-73
2024/01/16 00:16:04;;;;;;;6.93;5.23;;;2.40;99.90;;;;;;5092651;28;20170;-73
2024/01/16 00:18:29;;;;;;;7.27;4.50;;;2.30;99.90;;;;;;5092522;28;20169;-72
2024/01/16 00:20:55;;;;;;;7.77;5.53;;;2.30;99.90;;;;;;5092679;28;20403;-72
2024/01/16 00:23:20;;;;;;;9.87;6.30;;;2.20;99.90;;;;;;5092539;28;20316;-72
2024/01/16 00:25:46;;;;;;;7.60;4.67;;;2.30;99.90;;;;;;5074342;28;20188;-74
2024/01/16 00:28:11;;;;;;;5.57;4.50;;;2.30;99.90;;;;;;5092750;28;20177;-72
2024/01/16 00:30:37;;;;;;;8.20;5.77;;;2.20;99.90;;;;;;5092600;28;20205;-72
2024/01/16 00:33:03;;;;;;;9.17;4.17;;;2.30;99.90;;;;;;5092483;28;20166;-73
2024/01/16 00:35:28;;;;;;;7.80;5.70;;;2.30;99.90;;;;;;5092151;28;20189;-73
2024/01/16 00:37:54;;;;;;;16.87;6.43;;;2.40;99.90;;;;;;5092416;28;20166;-75
2024/01/16 00:40:19;;;;;;;6.80;5.80;;;2.30;99.90;;;;;;5092461;28;20165;-75
2024/01/16 00:42:45;;;;;;;6.40;4.97;;;2.40;99.90;;;;;;5092304;28;20296;-74
2024/01/16 00:45:10;;;;;;;10.43;5.50;;;2.40;99.90;;;;;;5091605;28;20196;-74
2024/01/16 00:47:36;;;;;;;5.40;4.67;;;2.50;99.90;;;;;;5091641;28;20670;-74
2024/01/16 00:50:02;;;;;;;10.17;6.43;;;2.40;99.90;;;;;;5092558;28;20193;-74
2024/01/16 00:52:27;;;;;;;10.33;5.77;;;2.50;99.90;;;;;;5091989;28;20178;-74
2024/01/16 00:54:53;;;;;;;6.20;4.53;;;2.30;99.90;;;;;;5091955;28;20420;-74
2024/01/16 00:57:21;;;;;;;6.60;4.50;;;2.30;99.90;;;;;;5091948;28;20215;-74
2024/01/16 00:59:47;;;;;;;6.57;4.37;;;2.30;99.90;;;;;;5091887;28;20166;-74
2024/01/16 01:02:12;;;;;;;5.17;4.70;;;2.30;99.90;;;;;;5092078;28;20395;-74
2024/01/16 01:04:38;;;;;;;6.40;4.50;;;2.30;99.90;;;;;;5091654;28;20215;-74
2024/01/16 01:07:04;;;;;;;6.63;5.17;;;2.30;99.90;;;;;;5091738;28;20162;-74
2024/01/16 01:09:32;;;;;;;5.00;4.40;;;2.30;99.90;;;;;;5092032;28;20195;-74
2024/01/16 01:11:57;;;;;;;7.30;4.70;;;2.20;99.90;;;;;;5091725;28;20166;-74
2024/01/16 01:14:23;;;;;;;6.90;5.57;;;2.20;99.90;;;;;;5091628;28;20427;-75
2024/01/16 01:16:48;;;;;;;6.13;4.30;;;2.20;99.90;;;;;;5091904;28;20210;-74
2024/01/16 01:19:14;;;;;;;13.77;5.63;;;2.20;99.90;;;;;;5091955;28;20173;-74
2024/01/16 01:21:40;;;;;;;9.83;4.57;;;2.20;99.90;;;;;;5091886;28;20180;-74
2024/01/16 01:24:05;;;;;;;12.60;3.80;;;2.20;99.90;;;;;;5091601;28;20185;-73
2024/01/16 01:26:31;;;;;;;8.37;4.20;;;2.10;99.90;;;;;;5091599;28;20165;-73
2024/01/16 01:28:56;;;;;;;16.10;3.83;;;2.10;99.90;;;;;;5091423;28;20169;-74
2024/01/16 01:31:22;;;;;;;6.20;3.40;;;2.10;99.90;;;;;;5091860;28;20282;-75
2024/01/16 01:33:48;;;;;;;9.80;4.30;;;2.10;99.90;;;;;;5091751;28;20217;-74
2024/01/16 01:36:13;;;;;;;4.80;4.27;;;2.10;99.90;;;;;;5091505;28;20482;-75
2024/01/16 01:38:39;;;;;;;5.97;4.10;;;2.10;99.90;;;;;;5091673;28;20532;-73
2024/01/16 01:41:05;;;;;;;12.53;4.67;;;2.10;99.90;;;;;;5091699;28;20559;-75
2024/01/16 01:43:30;;;;;;;7.13;4.30;;;2.10;99.90;;;;;;5091358;28;20166;-74
2024/01/16 01:46:14;;;;;;;6.93;4.00;;;2.10;99.90;;;;;;5091425;28;20166;-74
2024/01/16 01:48:43;;;;;;;7.73;4.20;;;2.10;99.90;;;;;;5073701;28;20177;-74
2024/01/16 01:51:10;;;;;;;8.33;4.80;;;2.10;99.90;;;;;;5091533;28;20459;-74
2024/01/16 01:53:36;;;;;;;7.70;4.17;;;2.10;99.90;;;;;;5091555;28;20422;-74
2024/01/16 01:56:05;;;;;;;6.87;5.07;;;2.10;99.90;;;;;;5091329;28;20490;-74
2024/01/16 01:58:33;;;;;;;11.80;4.57;;;2.10;99.90;;;;;;5094884;28;20409;-74
2024/01/16 02:01:03;;;;;;;11.30;5.33;;;2.00;99.90;;;;;;5095298;28;20942;-74
2024/01/16 02:03:32;;;;;;;13.43;7.00;;;2.00;99.90;;;;;;5095375;28;20399;-74
2024/01/16 02:05:58;;;;;;;11.90;7.20;;;2.00;99.90;;;;;;5076882;28;20403;-73
2024/01/16 02:08:24;;;;;;;10.17;5.47;;;1.90;99.90;;;;;;5095293;28;20404;-74
2024/01/16 02:10:50;;;;;;;7.47;6.20;;;1.90;99.90;;;;;;5077103;28;20462;-73
2024/01/16 02:13:20;;;;;;;7.70;5.73;;;1.80;99.90;;;;;;5095046;28;20215;-74
2024/01/16 02:15:45;;;;;;;11.63;6.00;;;1.80;99.90;;;;;;5094566;28;20184;-74
2024/01/16 02:18:11;;;;;;;6.47;5.37;;;1.70;99.90;;;;;;5094837;28;20482;-74
2024/01/16 02:20:36;;;;;;;8.87;5.37;;;1.70;99.90;;;;;;5094902;28;20244;-74
2024/01/16 02:23:03;;;;;;;10.13;6.00;;;1.70;99.90;;;;;;5094820;28;20204;-74
2024/01/16 02:25:30;;;;;;;6.10;5.50;;;1.60;99.90;;;;;;5094961;28;20748;-75
2024/01/16 02:27:55;;;;;;;7.90;5.93;;;1.60;99.90;;;;;;5095183;28;21068;-75
2024/01/16 02:30:21;;;;;;;12.70;5.90;;;1.60;99.90;;;;;;5094809;28;20447;-74
2024/01/16 02:32:47;;;;;;;6.13;5.53;;;1.60;99.90;;;;;;5094779;28;20223;-74
2024/01/16 02:35:13;;;;;;;16.00;9.30;;;1.60;99.90;;;;;;5094461;28;20268;-74
2024/01/16 02:37:38;;;;;;;5.47;4.70;;;1.60;99.90;;;;;;5094671;28;20510;-74
2024/01/16 02:40:06;;;;;;;12.07;5.57;;;1.70;99.90;;;;;;5076430;28;20252;-75
2024/01/16 02:42:32;;;;;;;7.63;5.30;;;1.70;99.90;;;;;;5094447;28;20579;-74
2024/01/16 02:44:58;;;;;;;4.80;4.30;;;1.70;99.90;;;;;;5094351;28;20424;-73
2024/01/16 02:47:23;;;;;;;9.60;5.63;;;1.70;99.90;;;;;;5094441;28;20454;-74
2024/01/16 02:49:49;;;;;;;12.40;5.67;;;1.60;99.90;;;;;;5094318;28;20200;-74
2024/01/16 02:52:14;;;;;;;12.40;4.57;;;1.60;99.90;;;;;;5094255;28;20480;-74
2024/01/16 02:54:40;;;;;;;6.67;4.67;;;1.60;99.90;;;;;;5094131;28;20238;-72
2024/01/16 02:57:05;;;;;;;10.60;4.43;;;1.60;99.90;;;;;;5094187;28;20162;-72
2024/01/16 02:59:31;;;;;;;7.33;5.00;;;1.70;99.90;;;;;;5094278;28;20174;-73
2024/01/16 03:01:57;;;;;;;8.37;5.07;;;1.60;99.90;;;;;;5094191;28;20166;-73
2024/01/16 03:04:23;;;;;;;14.87;5.73;;;1.60;99.90;;;;;;5093839;28;20182;-73
2024/01/16 03:06:48;;;;;;;13.63;5.23;;;1.50;99.90;;;;;;5094120;28;20405;-74
2024/01/16 03:09:14;;;;;;;9.67;4.60;;;1.60;99.90;;;;;;5092999;28;20189;-74
2024/01/16 03:11:39;;;;;;;9.10;4.83;;;1.50;99.90;;;;;;5076010;28;20711;-74
2024/01/16 03:14:05;;;;;;;9.20;4.90;;;1.50;99.90;;;;;;5094105;28;20185;-74
2024/01/16 03:16:31;;;;;;;7.60;5.33;;;1.50;99.90;;;;;;5093989;28;20168;-73
2024/01/16 03:18:57;;;;;;;13.40;5.80;;;1.50;99.90;;;;;;5093959;28;20510;-73
2024/01/16 03:21:23;;;;;;;9.53;5.50;;;1.40;99.90;;;;;;5093917;28;20911;-73
2024/01/16 03:23:48;;;;;;;14.03;4.87;;;1.50;99.90;;;;;;5093763;28;20181;-74
2024/01/16 03:26:14;;;;;;;8.00;5.33;;;1.50;99.90;;;;;;5093622;28;20161;-73
2024/01/16 03:28:41;;;;;;;15.13;5.23;;;1.50;99.90;;;;;;5093848;28;20687;-73
2024/01/16 03:31:07;;;;;;;9.83;5.63;;;1.50;99.90;;;;;;5075699;28;20201;-74
2024/01/16 03:33:34;;;;;;;8.23;5.90;;;1.50;99.90;;;;;;5093628;28;20403;-73
2024/01/16 03:36:00;;;;;;;7.47;6.10;;;1.50;99.90;;;;;;5093386;28;20391;-74
2024/01/16 03:38:26;;;;;;;8.20;6.23;;;1.40;99.90;;;;;;5093553;28;20403;-74
2024/01/16 03:40:51;;;;;;;9.00;6.40;;;1.50;99.90;;;;;;5093522;28;20410;-74
2024/01/16 03:43:17;;;;;;;10.00;6.03;;;1.50;99.90;;;;;;5093453;28;20255;-72
2024/01/16 03:45:43;;;;;;;21.40;10.20;;;1.60;99.90;;;;;;5093153;28;20176;-73
2024/01/16 03:48:09;;;;;;;11.60;8.30;;;1.50;99.90;;;;;;5093458;28;20408;-72
2024/01/16 03:50:36;;;;;;;12.10;6.40;;;1.60;99.90;;;;;;5092395;28;20810;-73
2024/01/16 03:53:03;;;;;;;16.13;6.53;;;1.70;99.90;;;;;;5093106;28;20181;-74
2024/01/16 03:55:29;;;;;;;9.80;6.73;;;1.70;99.90;;;;;;5093290;28;20428;-72
2024/01/16 03:57:55;;;;;;;8.07;6.30;;;1.50;99.90;;;;;;5093165;28;20453;-73
2024/01/16 04:00:20;;;;;;;23.67;11.43;;;1.50;99.90;;;;;;5093158;28;20457;-73
2024/01/16 04:02:46;;;;;;;17.87;7.87;;;1.50;99.90;;;;;;5093059;28;20575;-73
2024/01/16 04:05:11;;;;;;;12.50;6.70;;;1.60;99.90;;;;;;5092885;28;20232;-73
2024/01/16 04:07:37;;;;;;;12.73;7.50;;;1.50;99.90;;;;;;5074705;28;20174;-74
2024/01/16 04:10:05;;;;;;;12.00;8.00;;;1.50;99.90;;;;;;5092973;28;20201;-74
2024/01/16 04:12:30;;;;;;;11.03;6.30;;;1.50;99.90;;;;;;5092784;28;20158;-73
2024/01/16 04:14:56;;;;;;;8.53;7.50;;;1.40;99.90;;;;;;5092498;28;20431;-73
2024/01/16 04:17:21;;;;;;;21.10;7.63;;;1.30;99.90;;;;;;5092650;28;20183;-73
2024/01/16 04:19:47;;;;;;;11.80;7.53;;;1.40;99.90;;;;;;5092723;28;20157;-72
2024/01/16 04:22:12;;;;;;;11.13;7.33;;;1.30;99.90;;;;;;5092359;28;20228;-74
2024/01/16 04:24:38;;;;;;;11.47;7.03;;;1.30;99.90;;;;;;5092288;28;20190;-73
2024/01/16 04:27:04;;;;;;;16.50;6.93;;;1.20;99.90;;;;;;5092677;28;20652;-73
2024/01/16 04:29:29;;;;;;;10.37;7.67;;;1.20;99.90;;;;;;5092595;28;20193;-74
2024/01/16 04:31:55;;;;;;;13.47;6.70;;;1.20;99.90;;;;;;5092451;28;20403;-74
2024/01/16 04:34:20;;;;;;;11.47;7.80;;;1.10;99.90;;;;;;5092312;28;20188;-74
2024/01/16 04:36:46;;;;;;;10.43;6.20;;;1.10;99.90;;;;;;5092380;28;20166;-72
2024/01/16 04:39:12;;;;;;;11.93;6.80;;;1.00;99.90;;;;;;5092491;28;20212;-72
2024/01/16 04:41:37;;;;;;;8.90;6.00;;;1.10;99.90;;;;;;5092353;28;20763;-74
2024/01/16 04:44:03;;;;;;;8.03;6.00;;;1.10;99.90;;;;;;5092258;28;20247;-74
2024/01/16 04:46:28;;;;;;;8.93;5.50;;;1.10;99.90;;;;;;5091861;28;20170;-74
2024/01/16 04:48:55;;;;;;;7.30;5.20;;;1.00;99.90;;;;;;5092115;28;20295;-74
2024/01/16 04:51:20;;;;;;;7.83;5.17;;;1.00;99.90;;;;;;5091992;28;20197;-75
2024/01/16 04:53:46;;;;;;;7.13;4.47;;;1.00;99.90;;;;;;5092029;28;20420;-74
2024/01/16 04:56:11;;;;;;;7.50;5.60;;;1.00;99.90;;;;;;5091904;28;20633;-72
2024/01/16 04:58:37;;;;;;;7.80;4.57;;;1.00;99.90;;;;;;5073863;28;20178;-73
2024/01/16 05:01:02;;;;;;;5.93;4.53;;;1.00;99.90;;;;;;5092037;28;20177;-73
2024/01/16 05:03:28;;;;;;;10.50;3.90;;;1.10;99.90;;;;;;5091937;28;20240;-73
2024/01/16 05:05:55;;;;;;;6.33;3.60;;;1.10;99.90;;;;;;5074075;28;20177;-72
2024/01/16 05:08:21;;;;;;;6.40;3.90;;;1.10;99.90;;;;;;5092220;28;20166;-73
2024/01/16 05:10:47;;;;;;;7.00;3.90;;;1.00;99.90;;;;;;5091824;28;20458;-72
2024/01/16 05:13:13;;;;;;;8.97;3.63;;;1.10;99.90;;;;;;5091981;28;20813;-72
2024/01/16 05:15:40;;;;;;;12.17;5.00;;;1.10;99.90;;;;;;5091720;28;20197;-73
2024/01/16 05:18:05;;;;;;;13.80;5.10;;;1.10;99.90;;;;;;5092013;28;20161;-72
2024/01/16 05:20:31;;;;;;;10.60;6.63;;;1.10;99.90;;;;;;5091900;28;20408;-73
2024/01/16 05:22:56;;;;;;;9.83;5.13;;;1.20;99.90;;;;;;5091741;28;20514;-72
2024/01/16 05:25:22;;;;;;;4.10;3.33;;;1.10;99.90;;;;;;5091547;28;20214;-72
2024/01/16 05:27:49;;;;;;;5.27;3.70;;;1.20;99.90;;;;;;5091657;28;20215;-73
2024/01/16 05:30:14;;;;;;;5.53;3.53;;;1.20;99.90;;;;;;5091815;28;20272;-72
2024/01/16 05:32:41;;;;;;;9.77;3.50;;;1.20;99.90;;;;;;5093570;28;20959;-72
2024/01/16 05:35:07;;;;;;;11.20;4.67;;;1.20;99.90;;;;;;5095859;28;20187;-72
2024/01/16 05:37:33;;;;;;;6.87;3.63;;;1.20;99.90;;;;;;5096022;28;20482;-72
2024/01/16 05:39:58;;;;;;;7.30;3.00;;;1.20;99.90;;;;;;5096022;28;20410;-74
2024/01/16 05:42:24;;;;;;;7.20;4.03;;;1.20;99.90;;;;;;5077599;28;20930;-75
2024/01/16 05:44:49;;;;;;;11.30;4.10;;;1.30;99.90;;;;;;5095577;28;20189;-74
2024/01/16 05:47:15;;;;;;;11.07;4.20;;;1.20;99.90;;;;;;5077487;28;20181;-74
2024/01/16 05:49:42;;;;;;;5.70;3.20;;;1.30;99.90;;;;;;5095561;28;20193;-74
2024/01/16 05:52:08;;;;;;;3.17;2.77;;;1.20;99.90;;;;;;5095497;28;20549;-74
2024/01/16 05:54:33;;;;;;;4.80;3.70;;;1.20;99.90;;;;;;5095281;28;20425;-74
2024/01/16 05:56:59;;;;;;;9.53;3.80;;;1.10;99.90;;;;;;5095611;28;20172;-75
2024/01/16 05:59:25;;;;;;;3.00;2.70;;;1.10;99.90;;;;;;5095479;28;20561;-74
2024/01/16 06:01:50;;;;;;;6.40;4.00;;;1.20;99.90;;;;;;5077216;28;20607;-74
2024/01/16 06:04:16;;;;;;;15.33;3.00;;;1.20;99.90;;;;;;5095081;28;20462;-73
2024/01/16 06:06:45;;;;;;;6.83;3.07;;;1.20;99.90;;;;;;5095429;28;20183;-74
2024/01/16 06:09:13;;;;;;;4.00;3.10;;;1.30;99.90;;;;;;5077043;28;20256;-73
2024/01/16 06:11:40;;;;;;;8.70;3.10;;;1.20;99.90;;;;;;5095324;28;20404;-73
2024/01/16 06:14:09;;;;;;;9.60;3.50;;;1.30;99.90;;;;;;5094994;28;20433;-74
2024/01/16 06:16:35;;;;;;;6.63;2.90;;;1.30;99.90;;;;;;5095069;28;20404;-74
2024/01/16 06:19:01;;;;;;;4.57;2.80;;;1.30;99.90;;;;;;5095093;28;20450;-73
2024/01/16 06:21:27;;;;;;;6.93;3.53;;;1.30;99.90;;;;;;5094850;28;20439;-74
2024/01/16 06:23:52;;;;;;;6.40;3.00;;;1.30;99.90;;;;;;5076583;28;20200;-74
2024/01/16 06:26:18;;;;;;;6.13;3.63;;;1.30;99.90;;;;;;5094804;28;20169;-73
2024/01/16 06:28:44;;;;;;;7.20;3.87;;;1.30;99.90;;;;;;5076768;28;20231;-73
2024/01/16 06:31:10;;;;;;;9.40;3.40;;;1.30;99.90;;;;;;5094845;28;20200;-73
2024/01/16 06:33:35;;;;;;;10.90;3.57;;;1.30;99.90;;;;;;5094814;28;20192;-74
2024/01/16 06:36:04;;;;;;;13.27;2.90;;;1.30;99.90;;;;;;5094764;28;20407;-74
2024/01/16 06:38:32;;;;;;;6.07;3.50;;;1.30;99.90;;;;;;5076702;28;20197;-74
2024/01/16 06:40:58;;;;;;;4.83;3.00;;;1.30;99.90;;;;;;5094635;28;20482;-74
2024/01/16 06:43:24;;;;;;;7.80;2.90;;;1.30;99.90;;;;;;5093489;28;20454;-74
2024/01/16 06:45:49;;;;;;;11.53;3.90;;;1.20;99.90;;;;;;5094118;28;20408;-74
2024/01/16 06:48:15;;;;;;;7.60;3.40;;;1.30;99.90;;;;;;5094696;28;20558;-75
2024/01/16 06:50:41;;;;;;;9.70;4.10;;;1.30;99.90;;;;;;5094593;28;20595;-74
2024/01/16 06:53:07;;;;;;;5.83;3.60;;;1.30;99.90;;;;;;5094408;28;20429;-73
2024/01/16 06:55:32;;;;;;;8.80;3.50;;;1.30;99.90;;;;;;5094251;28;20185;-75
2024/01/16 06:57:58;;;;;;;9.33;3.53;;;1.30;99.90;;;;;;5094507;28;20173;-75
2024/01/16 07:00:25;;;;;;;3.77;3.30;;;1.30;99.90;;;;;;5076271;28;20582;-74
2024/01/16 07:02:52;;;;;;;8.80;3.90;;;1.20;99.90;;;;;;5094417;28;20165;-74
2024/01/16 07:05:17;;;;;;;14.03;3.90;;;1.20;99.90;;;;;;5094074;28;20842;-74
2024/01/16 07:07:43;;;;;;;7.53;3.53;;;1.20;99.90;;;;;;5094326;28;20486;-73
2024/01/16 07:10:13;;;;;;;7.83;2.70;;;1.30;99.90;;;;;;5094308;28;20570;-72
2024/01/16 07:12:39;;;;;;;3.73;2.87;;;1.20;99.90;;;;;;5094264;28;20517;-72
2024/01/16 07:15:05;;;;;;;4.93;2.63;;;1.20;99.90;;;;;;5093905;28;20416;-72
2024/01/16 07:17:30;;;;;;;11.80;3.37;;;1.30;99.90;;;;;;5094144;28;20770;-72
2024/01/16 07:19:56;;;;;;;2.90;2.47;;;1.30;99.90;;;;;;5094114;28;20408;-72
2024/01/16 07:22:22;;;;;;;6.33;3.23;;;1.30;99.90;;;;;;5093913;28;20169;-74
2024/01/16 07:24:47;;;;;;;4.73;2.23;;;1.40;99.90;;;;;;5093520;28;20279;-74
2024/01/16 07:27:13;;;;;;;10.90;3.07;;;1.40;99.90;;;;;;5093895;28;20170;-75
2024/01/16 07:29:38;;;;;;;4.20;2.40;;;1.40;99.90;;;;;;5093742;28;20189;-73
2024/01/16 07:32:05;;;;;;;7.33;2.40;;;1.30;99.90;;;;;;5093702;28;20173;-73
2024/01/16 07:34:30;;;;;;;6.67;3.00;;;1.30;99.90;;;;;;5093535;28;20200;-73
2024/01/16 07:36:56;;;;;;;7.20;3.30;;;1.40;99.90;;;;;;5093547;28;20403;-73
2024/01/16 07:39:22;;;;;;;9.53;2.70;;;1.30;99.90;;;;;;5075557;28;20165;-74
2024/01/16 07:41:48;;;;;;;3.80;2.00;;;1.30;99.90;;;;;;5093569;28;20161;-73
2024/01/16 07:44:13;;;;;;;4.43;2.33;;;1.20;99.90;;;;;;5093259;28;20899;-73
2024/01/16 07:46:39;;;;;;;5.97;2.43;;;1.20;99.90;;;;;;5093452;28;20176;-73
2024/01/16 07:49:05;;;;;;;4.37;2.53;;;1.10;99.90;;;;;;5093369;28;20162;-73
2024/01/16 07:51:31;;;;;;;5.07;2.50;;;1.10;99.90;;;;;;5093262;28;20181;-74
2024/01/16 07:54:07;;;;;;;6.40;2.80;;;1.10;99.90;;;;;;5093120;28;20422;-74
2024/01/16 07:56:34;;;;;;;7.60;2.70;;;1.10;99.90;;;;;;5074662;28;20295;-74
2024/01/16 07:59:01;;;;;;;3.23;2.67;;;1.00;99.90;;;;;;5093284;28;20426;-75
2024/01/16 08:01:27;;;;;;;10.13;3.00;;;0.90;99.90;;;;;;5093263;28;20408;-74
2024/01/16 08:03:52;;;;;;;3.43;2.40;;;0.90;99.90;;;;;;5093061;28;20438;-74
2024/01/16 08:06:18;;;;;;;10.37;3.33;;;0.90;99.90;;;;;;5092872;28;20430;-73
2024/01/16 08:08:43;;;;;;;10.67;2.60;;;0.90;99.90;;;;;;5093009;28;20166;-72
2024/01/16 08:11:09;;;;;;;2.70;2.10;;;0.90;99.90;;;;;;5092946;28;20193;-74
2024/01/16 08:13:34;;;;;;;5.77;2.70;;;0.90;99.90;;;;;;5074524;28;20189;-74
2024/01/16 08:16:00;;;;;;;4.63;2.37;;;0.90;99.90;;;;;;5093009;28;20185;-73
2024/01/16 08:18:26;;;;;;;6.30;2.50;;;0.90;99.90;;;;;;5093014;28;20169;-74
2024/01/16 08:20:52;;;;;;;9.23;3.03;;;1.00;99.90;;;;;;5092918;28;20161;-74
2024/01/16 08:23:17;;;;;;;4.93;2.07;;;1.10;99.90;;;;;;5092725;28;20490;-72
2024/01/16 08:25:43;;;;;;;3.40;2.40;;;1.30;99.90;;;;;;5092493;28;20244;-73
2024/01/16 08:28:09;;;;;;;5.30;3.10;;;1.50;99.90;;;;;;5092708;28;20636;-75
2024/01/16 08:30:34;;;;;;;2.40;2.20;;;1.80;99.90;;;;;;5092606;28;20193;-74
2024/01/16 08:33:00;;;;;;;3.70;2.83;;;2.20;99.90;;;;;;5092585;28;20400;-74
2024/01/16 08:35:25;;;;;;;5.80;2.20;;;2.70;99.90;;;;;;5092256;28;20268;-74
2024/01/16 08:37:51;;;;;;;4.10;3.00;;;3.20;99.90;;;;;;5092545;28;20166;-74
2024/01/16 08:40:17;;;;;;;6.47;2.83;;;3.60;99.90;;;;;;5074039;28;20664;-69
2024/01/16 08:42:42;;;;;;;9.50;2.37;;;4.20;99.90;;;;;;5092118;28;20668;-69
2024/01/16 08:45:08;;;;;;;2.50;1.90;;;4.80;99.90;;;;;;5092237;28;20427;-68
2024/01/16 08:47:34;;;;;;;7.60;2.77;;;5.10;99.90;;;;;;5092315;28;20173;-68
2024/01/16 08:49:59;;;;;;;5.23;2.33;;;4.80;99.90;;;;;;5092577;28;20479;-69
2024/01/16 08:52:25;;;;;;;3.37;2.57;;;4.60;99.90;;;;;;5092254;28;20199;-68
2024/01/16 08:54:51;;;;;;;5.00;2.23;;;4.50;99.90;;;;;;5091912;28;20181;-68
2024/01/16 08:57:16;;;;;;;4.53;2.17;;;4.10;99.90;;;;;;5092142;28;20529;-69
2024/01/16 08:59:42;;;;;;;3.83;2.63;;;4.10;99.90;;;;;;5092286;28;20201;-68
2024/01/16 09:02:07;;;;;;;8.73;2.50;;;4.30;99.90;;;;;;5092163;28;20170;-69
2024/01/16 09:04:34;;;;;;;3.80;2.30;;;4.00;99.90;;;;;;5091894;28;20561;-69
2024/01/16 09:06:59;;;;;;;5.60;3.10;;;4.10;99.90;;;;;;5073209;28;20178;-69
2024/01/16 09:09:25;;;;;;;3.67;2.53;;;4.10;99.90;;;;;;5092021;28;20443;-67
2024/01/16 09:11:50;;;;;;;3.00;2.17;;;4.10;99.90;;;;;;5091997;28;20158;-68
2024/01/16 09:14:16;;;;;;;6.60;2.30;;;4.10;99.90;;;;;;5091683;28;20182;-68
2024/01/16 09:16:42;;;;;;;5.40;2.63;;;3.90;99.90;;;;;;5091891;28;20157;-68
2024/01/16 09:19:09;;;;;;;4.90;2.67;;;4.00;99.90;;;;;;5091949;28;20161;-69
2024/01/16 09:21:35;;;;;;;10.20;2.80;;;4.10;99.90;;;;;;5091989;28;20408;-69
2024/01/16 09:24:00;;;;;;;1.73;1.63;;;4.20;99.90;;;;;;5091828;28;20417;-69
2024/01/16 09:26:26;;;;;;;5.07;2.77;;;3.90;99.90;;;;;;5089897;28;20184;-69
2024/01/16 09:28:51;;;;;;;2.57;1.73;;;3.90;99.90;;;;;;5091874;28;20167;-69
2024/01/16 09:31:17;;;;;;;4.07;2.47;;;3.70;99.90;;;;;;5091592;28;20201;-68
2024/01/16 09:33:43;;;;;;;2.20;1.60;;;3.70;99.90;;;;;;5091631;28;20703;-69
2024/01/16 09:36:09;;;;;;;2.57;2.37;;;3.70;99.90;;;;;;5091028;28;20162;-69
2024/01/16 09:38:34;;;;;;;2.23;1.87;;;3.50;99.90;;;;;;5091620;28;20392;-69
2024/01/16 09:41:00;;;;;;;3.97;2.47;;;3.60;99.90;;;;;;5091317;28;20173;-69
2024/01/16 09:43:29;;;;;;;2.97;2.67;;;3.40;99.90;;;;;;5091582;28;20633;-69
2024/01/16 09:45:56;;;;;;;6.97;2.27;;;3.20;99.90;;;;;;5090983;28;20538;-69
2024/01/16 09:48:21;;;;;;;3.90;2.30;;;3.10;99.90;;;;;;5091673;28;20494;-69
2024/01/16 09:50:47;;;;;;;5.33;1.90;;;3.30;99.90;;;;;;5091426;28;20530;-69
2024/01/16 09:53:13;;;;;;;3.13;2.10;;;3.40;99.90;;;;;;5091418;28;20208;-70
2024/01/16 09:55:38;;;;;;;3.40;2.27;;;3.50;99.90;;;;;;5091224;28;20205;-70
2024/01/16 09:58:08;;;;;;;7.03;2.43;;;3.60;99.90;;;;;;5091573;28;20641;-69
2024/01/16 10:00:35;;;;;;;9.60;2.80;;;3.60;99.90;;;;;;5091780;28;20162;-69
2024/01/16 10:03:04;;;;;;;2.53;2.33;;;3.70;99.90;;;;;;5091244;28;20432;-69
2024/01/16 10:05:30;;;;;;;4.53;2.30;;;3.80;99.90;;;;;;5091176;28;20428;-69
2024/01/16 10:07:56;;;;;;;7.90;3.00;;;3.80;99.90;;;;;;5091481;28;20956;-69
2024/01/16 10:10:22;;;;;;;2.83;2.10;;;3.80;99.90;;;;;;5091365;28;20451;-69
2024/01/16 10:12:50;;;;;;;5.20;3.00;;;3.70;99.90;;;;;;5091449;28;20418;-68
2024/01/16 10:15:17;;;;;;;3.50;2.27;;;3.80;99.90;;;;;;5091071;28;20189;-67
2024/01/16 10:17:42;;;;;;;3.70;2.17;;;3.90;99.90;;;;;;5091641;28;20486;-67
2024/01/16 10:20:13;;;;;;;5.33;2.27;;;4.20;99.90;;;;;;5095105;28;20510;-68
2024/01/16 10:22:52;;;;;;;4.33;2.47;;;4.80;99.90;;;;;;5095122;28;20180;-68
2024/01/16 10:25:19;;;;;;;5.00;2.60;;;5.20;99.90;;;;;;5094682;28;20425;-68
2024/01/16 10:27:45;;;;;;;5.07;2.10;;;5.90;99.90;;;;;;5094944;28;20948;-68
2024/01/16 10:30:12;;;;;;;10.53;2.90;;;6.70;99.90;;;;;;5094862;28;20482;-67
2024/01/16 10:32:39;;;;;;;2.60;1.90;;;6.80;96.50;;;;;;5094901;28;20158;-68
2024/01/16 10:35:14;;;;;;;3.03;2.50;;;6.90;96.50;;;;;;5094492;28;20513;-67
2024/01/16 10:37:47;;;;;;;3.53;2.23;;;6.60;95.50;;;;;;5094690;28;20442;-68
2024/01/16 10:40:16;;;;;;;4.00;2.17;;;6.40;95.20;;;;;;5094747;28;20404;-68
2024/01/16 10:42:43;;;;;;;5.50;2.50;;;5.90;94.70;;;;;;5094356;28;20446;-67
2024/01/16 10:45:15;;;;;;;4.47;2.20;;;5.90;96.00;;;;;;5094424;28;20507;-68
2024/01/16 10:47:42;;;;;;;8.50;3.13;;;6.60;98.90;;;;;;5094530;28;20446;-69
2024/01/16 10:50:09;;;;;;;6.10;2.50;;;7.10;96.20;;;;;;5094541;28;20442;-69
2024/01/16 10:52:40;;;;;;;11.13;2.37;;;7.30;93.40;;;;;;5094466;28;20415;-68
2024/01/16 10:55:09;;;;;;;4.27;2.17;;;7.70;92.10;;;;;;5094269;28;20415;-68
2024/01/16 10:57:40;;;;;;;8.73;2.53;;;8.20;90.60;;;;;;5094421;28;20392;-69
2024/01/16 11:00:10;;;;;;;2.93;2.33;;;8.10;84.20;;;;;;5094424;28;20404;-68
2024/01/16 11:02:45;;;;;;;7.07;2.10;;;7.60;80.80;;;;;;5094352;28;20395;-68
2024/01/16 11:05:13;;;;;;;4.83;2.20;;;7.20;79.60;;;;;;5094018;28;20458;-68
2024/01/16 11:07:41;;;;;;;5.33;1.70;;;6.90;82.40;;;;;;5094022;28;20400;-69
2024/01/16 11:10:08;;;;;;;4.93;2.60;;;7.00;85.30;;;;;;5094216;28;20443;-68
2024/01/16 11:12:35;;;;;;;7.83;2.20;;;6.90;84.60;;;;;;5094081;28;20766;-69
2024/01/16 11:15:03;;;;;;;4.47;2.17;;;7.00;85.90;;;;;;5093883;28;20451;-69
2024/01/16 11:17:31;;;;;;;5.20;3.20;;;7.20;87.20;;;;;;5093863;28;20793;-69
2024/01/16 11:19:58;;;;;;;2.03;1.73;;;7.30;87.80;;;;;;5094063;28;20468;-69
2024/01/16 11:22:25;;;;;;;3.97;2.50;;;7.00;81.10;;;;;;5093795;28;20434;-69
2024/01/16 11:25:14;;;;;;;2.43;1.83;;;6.80;82.10;;;;;;5093656;28;20428;-69
2024/01/16 11:27:41;;;;;;;11.63;3.00;;;6.90;81.60;;;;;;5093817;28;20399;-69
2024/01/16 11:30:08;;;;;;;3.40;2.33;;;6.70;81.70;;;;;;5092975;28;20439;-69
2024/01/16 11:32:35;;;;;;;3.00;2.40;;;6.70;83.70;;;;;;5093750;28;20842;-70
2024/01/16 11:35:01;;;;;;;10.20;2.97;;;6.70;82.90;;;;;;5093528;28;20929;-68
2024/01/16 11:37:29;;;;;;;4.83;2.50;;;6.70;83.90;;;;;;5093560;28;20487;-68
2024/01/16 11:40:20;;;;;;;7.20;2.63;;;6.90;85.20;;;;;;5093635;28;20165;-66
2024/01/16 11:42:46;;;;;;;3.20;2.50;;;6.70;83.30;;;;;;5082729;28;20828;-67
2024/01/16 11:45:27;;;;;;;5.80;3.50;;;7.10;86.20;;;;;;5093335;28;20457;-67
2024/01/16 11:48:13;;;;;;;5.03;2.43;;;7.20;82.70;;;;;;5093473;28;20474;-67
2024/01/16 11:50:39;;;;;;;4.73;2.40;;;7.20;79.70;;;;;;5093338;28;20542;-67
2024/01/16 11:53:05;;;;;;;3.03;2.00;;;7.40;81.80;;;;;;5093330;28;20502;-67
2024/01/16 11:55:32;;;;;;;4.43;2.50;;;7.90;81.80;;;;;;5093121;28;20448;-67
2024/01/16 11:58:10;;;;;;;10.33;3.43;;;9.00;86.00;;;;;;5075319;28;20404;-68
2024/01/16 12:00:39;;;;;;;7.83;2.40;;;11.20;73.40;;;;;;5074924;28;20418;-68
2024/01/16 12:03:06;;;;;;;4.70;2.53;;;14.40;66.80;;;;;;5093049;28;20921;-68
2024/01/16 12:05:34;;;;;;;4.70;2.00;;;16.50;48.40;;;;;;5092235;28;20501;-68
2024/01/16 12:08:03;;;;;;;6.67;2.43;;;18.40;48.30;;;;;;5093033;28;20411;-69
2024/01/16 12:10:29;;;;;;;7.17;2.47;;;20.10;43.80;;;;;;5092915;28;21304;-69
2024/01/16 12:12:58;;;;;;;3.40;2.57;;;21.20;41.80;;;;;;5092824;28;20490;-68
2024/01/16 12:15:24;;;;;;;9.97;2.97;;;20.90;34.90;;;;;;5092104;28;20193;-68
2024/01/16 12:17:57;;;;;;;7.33;3.30;;;20.90;34.40;;;;;;5092929;28;20409;-69
2024/01/16 12:20:23;;;;;;;5.60;2.67;;;20.50;30.90;;;;;;5092821;28;20177;-69
2024/01/16 12:22:57;;;;;;;5.63;2.67;;;20.50;30.70;;;;;;5092788;28;20756;-68
2024/01/16 12:25:23;;;;;;;5.13;2.33;;;21.20;32.50;;;;;;5091647;28;20792;-69
2024/01/16 12:27:58;;;;;;;3.37;2.80;;;22.50;32.30;;;;;;5092753;28;20435;-70
2024/01/16 12:30:26;;;;;;;5.50;2.60;;;22.60;30.00;;;;;;5092756;28;20652;-69
2024/01/16 12:32:53;;;;;;;8.80;3.00;;;21.50;28.40;;;;;;5074145;28;20858;-69
2024/01/16 12:35:22;;;;;;;4.83;2.70;;;19.70;28.40;;;;;;5092410;28;20451;-70
2024/01/16 12:38:00;;;;;;;6.13;2.90;;;17.70;29.20;;;;;;5092515;28;20785;-69
2024/01/16 12:40:27;;;;;;;5.47;2.53;;;15.10;29.30;;;;;;5092629;28;20407;-68
2024/01/16 12:42:53;;;;;;;12.27;3.00;;;14.10;31.80;;;;;;5092517;28;20407;-68
2024/01/16 12:45:19;;;;;;;5.73;2.97;;;14.70;34.00;;;;;;5092227;28;20572;-68
2024/01/16 12:47:48;;;;;;;7.87;2.80;;;15.60;34.00;;;;;;5092512;28;20487;-68
2024/01/16 12:50:22;;;;;;;6.80;3.13;;;16.60;34.20;;;;;;5092379;28;21015;-68